createdAt,value
2022-11-09T00:00:42.878Z,14.40
2022-11-09T00:03:09.779Z,14.40
2022-11-09T00:05:36.859Z,14.30
2022-11-09T00:08:12.747Z,14.30
2022-11-09T00:10:39.619Z,14.30
2022-11-09T00:13:06.487Z,14.40
2022-11-09T00:15:33.229Z,14.30
2022-11-09T00:18:02.736Z,14.30
2022-11-09T00:20:29.697Z,14.20
2022-11-09T00:22:57.071Z,14.30
2022-11-09T00:25:23.914Z,14.30
2022-11-09T00:27:50.921Z,14.20
2022-11-09T00:30:17.727Z,14.30
2022-11-09T00:32:44.681Z,14.20
2022-11-09T00:35:11.416Z,14.30
2022-11-09T00:37:38.316Z,14.40
2022-11-09T00:40:05.630Z,14.20
2022-11-09T00:42:32.382Z,14.10
2022-11-09T00:44:59.131Z,14.00
2022-11-09T00:47:25.894Z,14.00
2022-11-09T00:49:52.699Z,14.00
2022-11-09T00:52:19.471Z,13.90
2022-11-09T00:54:46.213Z,14.00
2022-11-09T00:57:13.948Z,13.90
2022-11-09T00:59:40.660Z,13.80
2022-11-09T01:02:07.426Z,13.80
2022-11-09T01:04:34.356Z,13.70
2022-11-09T01:07:01.168Z,13.80
2022-11-09T01:09:28.013Z,13.70
2022-11-09T01:11:54.764Z,13.80
2022-11-09T01:14:21.521Z,13.60
2022-11-09T01:16:48.245Z,13.60
2022-11-09T01:19:15.007Z,13.60
2022-11-09T01:21:41.745Z,13.60
2022-11-09T01:24:10.055Z,13.70
2022-11-09T01:26:36.803Z,13.60
2022-11-09T01:29:03.607Z,13.60
2022-11-09T01:31:30.490Z,13.50
2022-11-09T01:33:57.185Z,13.50
2022-11-09T01:36:24.922Z,13.50
2022-11-09T01:38:51.843Z,13.50
2022-11-09T01:41:26.953Z,13.50
2022-11-09T01:44:04.107Z,13.50
2022-11-09T01:46:43.818Z,13.60
2022-11-09T01:49:42.598Z,13.50
2022-11-09T01:52:30.326Z,13.60
2022-11-09T01:55:18.468Z,13.60
2022-11-09T01:58:10.484Z,13.50
2022-11-09T02:00:41.044Z,13.50
2022-11-09T02:03:28.006Z,13.50
2022-11-09T02:05:55.045Z,13.60
2022-11-09T02:08:25.094Z,13.60
2022-11-09T02:11:11.485Z,13.60
2022-11-09T02:13:42.655Z,13.50
2022-11-09T02:16:11.934Z,13.60
2022-11-09T02:18:48.248Z,13.50
2022-11-09T02:21:15.004Z,13.40
2022-11-09T02:23:41.779Z,13.40
2022-11-09T02:26:13.815Z,13.40
2022-11-09T02:28:42.343Z,13.30
2022-11-09T02:31:12.186Z,13.30
2022-11-09T02:34:13.421Z,13.30
2022-11-09T02:36:40.359Z,13.20
2022-11-09T02:39:07.245Z,13.20
2022-11-09T02:41:42.668Z,13.10
2022-11-09T02:44:10.022Z,13.10
2022-11-09T02:46:37.670Z,13.10
2022-11-09T02:49:05.057Z,13.20
2022-11-09T02:51:32.346Z,13.20
2022-11-09T02:53:59.262Z,13.20
2022-11-09T02:56:26.014Z,13.20
2022-11-09T02:58:52.717Z,13.10
2022-11-09T03:01:19.567Z,13.10
2022-11-09T03:03:46.462Z,13.00
2022-11-09T03:06:13.531Z,13.00
2022-11-09T03:08:40.374Z,13.10
2022-11-09T03:11:07.248Z,13.10
2022-11-09T03:13:34.798Z,13.00
2022-11-09T03:16:08.647Z,13.10
2022-11-09T03:18:35.389Z,13.00
2022-11-09T03:21:04.406Z,12.90
2022-11-09T03:23:31.303Z,13.00
2022-11-09T03:25:58.190Z,12.90
2022-11-09T03:28:24.983Z,13.10
2022-11-09T03:30:52.061Z,13.00
2022-11-09T03:33:19.416Z,12.90
2022-11-09T03:35:46.665Z,13.00
2022-11-09T03:38:13.664Z,13.00
2022-11-09T03:40:40.534Z,13.00
2022-11-09T03:43:07.425Z,13.00
2022-11-09T03:45:34.430Z,13.00
2022-11-09T03:48:01.312Z,13.10
2022-11-09T03:50:30.081Z,13.00
2022-11-09T03:52:57.517Z,12.90
2022-11-09T03:55:24.456Z,12.90
2022-11-09T03:57:51.509Z,12.90
2022-11-09T04:00:20.889Z,12.90
2022-11-09T04:02:48.117Z,12.80
2022-11-09T04:05:15.528Z,12.90
2022-11-09T04:07:48.523Z,12.80
2022-11-09T04:10:15.512Z,12.80
2022-11-09T04:12:42.522Z,12.80
2022-11-09T04:15:09.951Z,12.80
2022-11-09T04:17:36.866Z,12.80
2022-11-09T04:20:05.412Z,12.70
2022-11-09T04:22:32.178Z,12.70
2022-11-09T04:24:59.101Z,12.80
2022-11-09T04:27:25.963Z,12.80
2022-11-09T04:29:52.763Z,12.70
2022-11-09T04:32:19.580Z,12.70
2022-11-09T04:34:46.329Z,12.70
2022-11-09T04:37:14.281Z,12.70
2022-11-09T04:39:41.029Z,12.70
2022-11-09T04:42:07.956Z,12.60
2022-11-09T04:44:34.691Z,12.60
2022-11-09T04:47:01.445Z,12.50
2022-11-09T04:49:28.173Z,12.50
2022-11-09T04:51:55.038Z,12.50
2022-11-09T04:54:21.787Z,12.70
2022-11-09T04:56:48.551Z,12.70
2022-11-09T04:59:15.346Z,12.50
2022-11-09T05:01:42.058Z,12.70
2022-11-09T05:04:08.838Z,12.70
2022-11-09T05:06:35.779Z,12.60
2022-11-09T05:09:06.096Z,12.50
2022-11-09T05:11:35.188Z,12.50
2022-11-09T05:14:02.760Z,12.50
2022-11-09T05:16:30.179Z,12.50
2022-11-09T05:18:56.919Z,12.70
2022-11-09T05:21:23.775Z,12.50
2022-11-09T05:23:59.384Z,12.50
2022-11-09T05:26:37.717Z,12.40
2022-11-09T05:29:08.086Z,12.40
2022-11-09T05:31:35.129Z,12.40
2022-11-09T05:34:02.812Z,12.40
2022-11-09T05:36:30.649Z,12.30
2022-11-09T05:38:59.606Z,12.30
2022-11-09T05:41:26.806Z,12.30
2022-11-09T05:43:53.804Z,12.40
2022-11-09T05:46:20.580Z,12.40
2022-11-09T05:48:47.479Z,12.40
2022-11-09T05:51:15.571Z,12.30
2022-11-09T05:53:46.450Z,12.20
2022-11-09T05:56:15.191Z,12.20
2022-11-09T05:58:42.517Z,12.20
2022-11-09T06:01:12.476Z,12.10
2022-11-09T06:03:40.405Z,12.20
2022-11-09T06:06:09.022Z,12.30
2022-11-09T06:08:36.473Z,12.30
2022-11-09T06:11:08.731Z,12.20
2022-11-09T06:13:35.616Z,12.20
2022-11-09T06:16:04.757Z,12.30
2022-11-09T06:18:33.093Z,12.20
2022-11-09T06:21:01.783Z,12.10
2022-11-09T06:23:30.233Z,12.30
2022-11-09T06:25:58.971Z,12.20
2022-11-09T06:28:26.116Z,12.10
2022-11-09T06:30:53.321Z,12.10
2022-11-09T06:33:20.496Z,12.10
2022-11-09T06:35:50.887Z,12.00
2022-11-09T06:38:21.817Z,12.10
2022-11-09T06:40:52.642Z,12.00
2022-11-09T06:43:20.048Z,12.00
2022-11-09T06:45:47.266Z,12.00
2022-11-09T06:48:14.379Z,12.00
2022-11-09T06:50:41.359Z,12.10
2022-11-09T06:53:11.885Z,12.00
2022-11-09T06:55:38.683Z,12.00
2022-11-09T06:58:07.447Z,12.00
2022-11-09T07:00:34.349Z,12.10
2022-11-09T07:03:01.142Z,12.10
2022-11-09T07:05:28.065Z,12.20
2022-11-09T07:07:54.978Z,12.10
2022-11-09T07:10:22.690Z,12.00
2022-11-09T07:12:49.460Z,11.90
2022-11-09T07:15:17.681Z,12.00
2022-11-09T07:17:44.512Z,11.90
2022-11-09T07:20:12.053Z,11.80
2022-11-09T07:22:39.926Z,11.80
2022-11-09T07:25:08.241Z,11.80
2022-11-09T07:27:35.673Z,11.80
2022-11-09T07:30:03.063Z,11.90
2022-11-09T07:32:54.154Z,11.90
2022-11-09T07:35:19.212Z,11.80
2022-11-09T07:37:45.982Z,11.80
2022-11-09T07:40:13.363Z,11.90
2022-11-09T07:42:40.152Z,11.90
2022-11-09T07:45:07.495Z,12.00
2022-11-09T07:47:34.192Z,11.90
2022-11-09T07:50:00.959Z,11.90
2022-11-09T07:52:27.756Z,12.00
2022-11-09T07:54:54.464Z,12.00
2022-11-09T07:57:21.728Z,12.00
2022-11-09T07:59:48.424Z,11.90
2022-11-09T08:02:16.321Z,12.00
2022-11-09T08:04:43.133Z,12.00
2022-11-09T08:07:09.906Z,12.10
2022-11-09T08:09:36.760Z,12.10
2022-11-09T08:12:03.623Z,12.00
2022-11-09T08:14:30.679Z,11.90
2022-11-09T08:16:57.473Z,12.00
2022-11-09T08:19:24.296Z,12.00
2022-11-09T08:21:53.963Z,12.00
2022-11-09T08:24:20.704Z,12.10
2022-11-09T08:26:47.469Z,12.10
2022-11-09T08:29:15.656Z,12.10
2022-11-09T08:31:42.383Z,12.10
2022-11-09T08:34:15.140Z,12.10
2022-11-09T08:36:41.969Z,12.30
2022-11-09T08:39:09.431Z,12.30
2022-11-09T08:41:36.787Z,12.30
2022-11-09T08:44:03.750Z,12.30
2022-11-09T08:46:30.565Z,12.30
2022-11-09T08:48:57.399Z,12.30
2022-11-09T08:51:24.126Z,12.40
2022-11-09T08:53:51.697Z,12.40
2022-11-09T08:56:19.108Z,12.40
2022-11-09T08:58:46.442Z,12.40
2022-11-09T09:01:17.107Z,12.50
2022-11-09T09:03:44.461Z,12.50
2022-11-09T09:06:11.379Z,12.40
2022-11-09T09:08:38.213Z,12.40
2022-11-09T09:11:05.541Z,12.40
2022-11-09T09:13:33.409Z,12.40
2022-11-09T09:16:10.649Z,12.40
2022-11-09T09:18:37.642Z,12.40
2022-11-09T09:21:08.524Z,12.50
2022-11-09T09:23:35.364Z,12.40
2022-11-09T09:26:02.511Z,12.50
2022-11-09T09:28:29.318Z,12.50
2022-11-09T09:31:01.605Z,12.50
2022-11-09T09:33:28.918Z,12.50
2022-11-09T09:35:57.611Z,12.60
2022-11-09T09:38:25.623Z,12.70
2022-11-09T09:40:59.716Z,12.60
2022-11-09T09:43:39.747Z,12.70
2022-11-09T09:46:22.601Z,12.70
2022-11-09T09:48:55.668Z,12.80
2022-11-09T09:51:48.708Z,12.80
2022-11-09T09:54:19.821Z,12.90
2022-11-09T09:56:49.363Z,13.10
2022-11-09T09:59:27.720Z,13.20
2022-11-09T10:01:57.375Z,13.10
2022-11-09T10:04:40.072Z,13.00
2022-11-09T10:07:15.288Z,13.00
2022-11-09T10:10:03.606Z,13.00
2022-11-09T10:12:45.193Z,13.00
2022-11-09T10:15:14.987Z,13.10
2022-11-09T10:17:47.961Z,13.00
2022-11-09T10:20:30.367Z,13.00
2022-11-09T10:23:00.112Z,13.10
2022-11-09T10:26:03.169Z,13.10
2022-11-09T10:28:17.838Z,13.10
2022-11-09T10:30:45.082Z,13.10
2022-11-09T10:33:11.808Z,13.10
2022-11-09T10:35:45.173Z,13.10
2022-11-09T10:38:36.281Z,13.10
2022-11-09T10:41:48.130Z,13.20
2022-11-09T10:44:18.205Z,13.40
2022-11-09T10:47:03.746Z,13.40
2022-11-09T10:49:30.717Z,13.30
2022-11-09T10:51:57.548Z,13.20
2022-11-09T10:54:28.739Z,13.10
2022-11-09T10:57:16.317Z,13.10
2022-11-09T10:59:51.011Z,13.20
2022-11-09T11:02:41.967Z,13.20
2022-11-09T11:05:23.500Z,13.20
2022-11-09T11:07:50.370Z,13.20
2022-11-09T11:10:17.125Z,13.20
2022-11-09T11:12:46.710Z,13.20
2022-11-09T11:15:32.713Z,13.20
2022-11-09T11:18:04.867Z,13.20
2022-11-09T11:20:36.920Z,13.20
2022-11-09T11:23:09.784Z,13.30
2022-11-09T11:25:57.189Z,13.20
2022-11-09T11:28:39.992Z,13.20
2022-11-09T11:31:14.024Z,13.20
2022-11-09T11:33:40.999Z,13.10
2022-11-09T11:36:20.715Z,13.10
2022-11-09T11:39:01.715Z,13.00
2022-11-09T11:41:47.100Z,12.80
2022-11-09T11:44:19.733Z,12.70
2022-11-09T11:46:50.899Z,12.70
2022-11-09T11:49:39.295Z,12.70
2022-11-09T11:52:31.105Z,12.80
2022-11-09T11:55:22.379Z,12.90
2022-11-09T11:58:01.270Z,12.90
2022-11-09T12:00:29.680Z,13.00
2022-11-09T12:02:56.418Z,13.10
2022-11-09T12:05:41.731Z,13.10
2022-11-09T12:08:39.809Z,13.10
2022-11-09T12:11:43.888Z,13.10
2022-11-09T12:14:18.896Z,13.10
2022-11-09T12:17:04.173Z,13.10
2022-11-09T12:19:43.285Z,12.80
2022-11-09T12:22:22.308Z,12.60
2022-11-09T12:24:57.943Z,12.30
2022-11-09T12:27:58.580Z,12.20
2022-11-09T12:30:33.663Z,12.00
2022-11-09T12:33:05.365Z,11.80
2022-11-09T12:35:37.791Z,11.60
2022-11-09T12:38:19.675Z,11.50
2022-11-09T12:41:05.714Z,11.50
2022-11-09T12:44:04.424Z,11.40
2022-11-09T12:46:48.744Z,11.50
2022-11-09T12:49:33.196Z,11.50
2022-11-09T12:52:00.698Z,11.70
2022-11-09T12:54:28.192Z,11.70
2022-11-09T12:57:01.575Z,11.70
2022-11-09T12:59:28.479Z,11.80
2022-11-09T13:01:57.494Z,11.90
2022-11-09T13:04:25.921Z,12.10
2022-11-09T13:07:14.757Z,12.20
2022-11-09T13:09:45.154Z,12.40
2022-11-09T13:12:26.744Z,12.40
2022-11-09T13:14:53.959Z,12.50
2022-11-09T13:17:26.543Z,12.30
2022-11-09T13:19:57.711Z,12.50
2022-11-09T13:22:27.449Z,12.50
2022-11-09T13:25:02.799Z,12.50
2022-11-09T13:27:42.501Z,12.60
2022-11-09T13:30:29.709Z,12.50
2022-11-09T13:33:11.154Z,12.60
2022-11-09T13:35:40.947Z,12.70
2022-11-09T13:38:24.425Z,12.80
2022-11-09T13:41:17.048Z,13.00
2022-11-09T13:43:43.915Z,13.20
2022-11-09T13:46:10.593Z,13.20
2022-11-09T13:48:47.719Z,13.00
2022-11-09T13:51:26.967Z,13.00
2022-11-09T13:54:02.714Z,12.90
2022-11-09T13:56:41.732Z,12.90
2022-11-09T13:59:21.616Z,13.10
2022-11-09T14:01:54.947Z,12.90
2022-11-09T14:04:27.776Z,12.80
2022-11-09T14:06:59.597Z,12.90
2022-11-09T14:09:26.725Z,12.90
2022-11-09T14:12:17.220Z,13.00
2022-11-09T14:15:11.088Z,13.00
2022-11-09T14:17:43.672Z,12.90
2022-11-09T14:20:19.389Z,12.80
2022-11-09T14:22:46.290Z,12.60
2022-11-09T14:25:17.756Z,12.50
2022-11-09T14:27:58.778Z,12.50
2022-11-09T14:30:28.648Z,12.50
2022-11-09T14:32:56.980Z,12.40
2022-11-09T14:35:33.386Z,12.30
2022-11-09T14:38:13.705Z,12.20
2022-11-09T14:40:45.811Z,12.20
2022-11-09T14:43:24.706Z,12.10
2022-11-09T14:45:54.529Z,12.10
2022-11-09T14:48:23.365Z,12.00
2022-11-09T14:50:53.300Z,12.10
2022-11-09T14:53:27.499Z,12.10
2022-11-09T14:55:57.254Z,12.20
2022-11-09T14:58:24.670Z,12.20
2022-11-09T15:01:24.226Z,12.20
2022-11-09T15:04:09.975Z,12.20
2022-11-09T15:06:51.681Z,12.40
2022-11-09T15:09:24.561Z,12.40
2022-11-09T15:11:51.711Z,12.50
2022-11-09T15:14:42.530Z,12.40
2022-11-09T15:17:22.636Z,12.40
2022-11-09T15:19:54.297Z,12.30
2022-11-09T15:22:51.573Z,12.30
2022-11-09T15:25:24.449Z,12.30
2022-11-09T15:28:08.230Z,12.30
2022-11-09T15:30:45.684Z,12.30
2022-11-09T15:33:21.475Z,12.30
2022-11-09T15:35:53.352Z,12.30
2022-11-09T15:38:39.449Z,12.40
2022-11-09T15:41:11.155Z,12.30
2022-11-09T15:43:38.593Z,12.30
2022-11-09T15:46:06.151Z,12.20
2022-11-09T15:48:33.351Z,12.10
2022-11-09T15:51:00.135Z,12.20
2022-11-09T15:53:27.611Z,12.00
2022-11-09T15:55:54.441Z,12.00
2022-11-09T15:58:21.543Z,12.10
2022-11-09T16:00:48.719Z,12.20
2022-11-09T16:03:17.839Z,12.50
2022-11-09T16:05:47.589Z,12.20
2022-11-09T16:08:14.554Z,12.20
2022-11-09T16:10:42.094Z,12.20
2022-11-09T16:13:10.320Z,12.00
2022-11-09T16:15:39.671Z,11.80
2022-11-09T16:18:06.620Z,11.80
2022-11-09T16:20:33.427Z,11.90
2022-11-09T16:23:00.172Z,11.80
2022-11-09T16:25:27.117Z,11.80
2022-11-09T16:27:54.271Z,11.70
2022-11-09T16:30:21.705Z,11.80
2022-11-09T16:32:48.648Z,11.80
2022-11-09T16:35:26.667Z,11.70
2022-11-09T16:37:55.345Z,11.70
2022-11-09T16:40:22.749Z,11.80
2022-11-09T16:42:51.105Z,11.80
2022-11-09T16:45:18.708Z,11.80
2022-11-09T16:47:52.892Z,11.90
2022-11-09T16:50:19.777Z,11.80
2022-11-09T16:52:46.577Z,11.80
2022-11-09T16:55:13.728Z,11.80
2022-11-09T16:57:40.489Z,12.00
2022-11-09T17:00:08.387Z,12.00
2022-11-09T17:02:35.741Z,12.00
2022-11-09T17:05:02.593Z,11.90
2022-11-09T17:07:29.454Z,11.80
2022-11-09T17:09:56.243Z,11.60
2022-11-09T17:12:23.315Z,11.50
2022-11-09T17:14:50.083Z,11.50
2022-11-09T17:17:22.253Z,11.60
2022-11-09T17:19:49.785Z,11.50
2022-11-09T17:22:17.177Z,11.60
2022-11-09T17:24:44.077Z,11.50
2022-11-09T17:27:11.832Z,11.40
2022-11-09T17:29:39.152Z,11.50
2022-11-09T17:32:08.115Z,11.50
2022-11-09T17:34:35.148Z,11.60
2022-11-09T17:37:04.746Z,11.50
2022-11-09T17:39:32.973Z,11.50
2022-11-09T17:41:59.863Z,11.80
2022-11-09T17:44:26.696Z,11.70
2022-11-09T17:46:53.534Z,11.60
2022-11-09T17:49:20.326Z,11.50
2022-11-09T17:51:47.091Z,11.40
2022-11-09T17:54:15.048Z,11.40
2022-11-09T17:56:42.327Z,11.40
2022-11-09T17:59:09.464Z,11.40
2022-11-09T18:01:41.065Z,11.50
2022-11-09T18:04:10.612Z,11.60
2022-11-09T18:06:38.681Z,11.60
2022-11-09T18:11:52.840Z,11.50
2022-11-09T18:14:19.947Z,11.50
2022-11-09T18:16:46.798Z,11.50
2022-11-09T18:19:13.782Z,11.50
2022-11-09T18:21:41.376Z,11.50
2022-11-09T18:24:08.504Z,11.30
2022-11-09T18:26:35.296Z,11.40
2022-11-09T18:29:02.064Z,11.40
2022-11-09T18:31:28.897Z,11.60
2022-11-09T18:33:55.740Z,11.60
2022-11-09T18:36:23.735Z,11.60
2022-11-09T18:38:53.908Z,11.50
2022-11-09T18:41:22.579Z,11.50
2022-11-09T18:43:50.880Z,11.60
2022-11-09T18:46:19.830Z,11.60
2022-11-09T18:48:53.553Z,11.60
2022-11-09T18:51:20.645Z,11.60
2022-11-09T18:53:48.441Z,11.60
2022-11-09T18:56:25.000Z,11.70
2022-11-09T18:58:56.377Z,11.60
2022-11-09T19:01:24.846Z,11.60
2022-11-09T19:03:57.781Z,11.60
2022-11-09T19:06:26.002Z,11.60
2022-11-09T19:09:11.621Z,11.50
2022-11-09T19:11:38.499Z,11.50
2022-11-09T19:14:05.464Z,11.50
2022-11-09T19:16:32.595Z,11.60
2022-11-09T19:18:59.378Z,11.60
2022-11-09T19:21:34.518Z,11.50
2022-11-09T19:24:02.044Z,11.60
2022-11-09T19:26:29.255Z,11.60
2022-11-09T19:28:56.086Z,11.60
2022-11-09T19:31:24.488Z,11.50
2022-11-09T19:33:52.150Z,11.60
2022-11-09T19:36:30.176Z,11.50
2022-11-09T19:38:58.598Z,11.50
2022-11-09T19:41:26.092Z,11.60
2022-11-09T19:43:55.954Z,11.70
2022-11-09T19:46:23.404Z,11.70
2022-11-09T19:48:50.790Z,11.70
2022-11-09T19:51:18.686Z,11.70
2022-11-09T19:53:56.557Z,11.60
2022-11-09T19:56:25.050Z,11.60
2022-11-09T19:58:53.646Z,11.70
2022-11-09T20:01:20.813Z,11.70
2022-11-09T20:03:52.473Z,11.60
2022-11-09T20:06:20.561Z,11.50
2022-11-09T20:08:47.936Z,11.50
2022-11-09T20:11:39.793Z,11.60
2022-11-09T20:14:08.430Z,11.70
2022-11-09T20:16:36.679Z,11.60
2022-11-09T20:19:05.083Z,11.60
2022-11-09T20:21:32.681Z,11.50
2022-11-09T20:23:59.757Z,11.70
2022-11-09T20:26:26.741Z,11.70
2022-11-09T20:28:55.120Z,11.70
2022-11-09T20:31:23.469Z,11.60
2022-11-09T20:33:51.103Z,11.60
2022-11-09T20:36:21.228Z,11.60
2022-11-09T20:38:48.769Z,11.60
2022-11-09T20:41:15.771Z,11.60
2022-11-09T20:43:43.322Z,11.60
2022-11-09T20:46:16.798Z,11.60
2022-11-09T20:48:54.125Z,11.60
2022-11-09T20:51:23.239Z,11.60
2022-11-09T20:53:51.296Z,11.70
2022-11-09T20:56:19.829Z,11.40
2022-11-09T20:58:47.334Z,11.30
2022-11-09T21:01:20.430Z,11.30
2022-11-09T21:03:49.022Z,11.40
2022-11-09T21:06:15.869Z,11.40
2022-11-09T21:08:44.971Z,11.40
2022-11-09T21:11:13.167Z,11.40
2022-11-09T21:13:45.763Z,11.40
2022-11-09T21:16:14.700Z,11.40
2022-11-09T21:18:42.328Z,11.50
2022-11-09T21:21:19.155Z,11.40
2022-11-09T21:24:04.688Z,11.40
2022-11-09T21:26:50.163Z,11.30
2022-11-09T21:29:37.886Z,11.30
2022-11-09T21:32:05.882Z,11.30
2022-11-09T21:34:36.556Z,11.30
2022-11-09T21:37:04.533Z,11.30
2022-11-09T21:39:31.472Z,11.30
2022-11-09T21:41:58.742Z,11.30
2022-11-09T21:44:27.492Z,11.30
2022-11-09T21:46:54.507Z,11.20
2022-11-09T21:49:21.436Z,11.20
2022-11-09T21:51:48.414Z,11.20
2022-11-09T21:54:15.181Z,11.20
2022-11-09T21:56:42.066Z,11.30
2022-11-09T21:59:08.940Z,11.20
2022-11-09T22:01:35.726Z,11.20
2022-11-09T22:04:02.847Z,11.10
2022-11-09T22:06:30.275Z,11.00
2022-11-09T22:08:57.304Z,11.00
2022-11-09T22:11:45.676Z,10.90
2022-11-09T22:14:36.209Z,11.00
2022-11-09T22:17:04.185Z,11.20
2022-11-09T22:19:49.464Z,11.10
2022-11-09T22:22:16.472Z,11.10
2022-11-09T22:24:43.662Z,11.00
2022-11-09T22:27:10.442Z,11.00
2022-11-09T22:29:37.283Z,11.10
2022-11-09T22:32:04.645Z,11.10
2022-11-09T22:34:31.392Z,11.10
2022-11-09T22:36:58.162Z,11.00
2022-11-09T22:39:24.964Z,11.00
2022-11-09T22:41:52.127Z,10.90
2022-11-09T22:44:19.046Z,11.00
2022-11-09T22:46:45.823Z,11.00
2022-11-09T22:49:12.604Z,11.00
2022-11-09T22:51:39.359Z,11.00
2022-11-09T22:54:06.346Z,11.10
2022-11-09T22:56:33.107Z,10.90
2022-11-09T22:58:59.856Z,10.90
2022-11-09T23:01:26.754Z,11.00
2022-11-09T23:03:53.674Z,11.10
2022-11-09T23:06:22.250Z,11.10
2022-11-09T23:08:49.552Z,10.90
2022-11-09T23:11:20.696Z,10.80
2022-11-09T23:13:52.540Z,10.80
2022-11-09T23:16:19.969Z,10.80
2022-11-09T23:18:55.833Z,10.90
2022-11-09T23:21:24.179Z,11.00
2022-11-09T23:23:52.200Z,10.90
2022-11-09T23:26:19.906Z,10.80
2022-11-09T23:28:47.214Z,10.70
2022-11-09T23:31:16.371Z,10.80
2022-11-09T23:33:43.392Z,10.80
2022-11-09T23:36:10.823Z,10.90
2022-11-09T23:38:39.080Z,11.00
2022-11-09T23:41:08.380Z,10.80
2022-11-09T23:43:36.460Z,10.70
2022-11-09T23:46:05.876Z,10.60
2022-11-09T23:48:32.716Z,10.60
2022-11-09T23:51:00.768Z,10.70
2022-11-09T23:53:29.246Z,10.60
2022-11-09T23:56:01.136Z,10.70
2022-11-09T23:58:28.387Z,10.60
